Time;durP1;ratioP1;P1;durP2;ratioP2;P2;SDS_P1;SDS_P2;PMS_P1;PMS_P2;Temp;Humidity;BMP_temperature;BMP_pressure;BME280_temperature;BME280_humidity;BME280_pressure;Samples;Min_cycle;Max_cycle;Signal;HPM_P1;HPM_P2
2024/02/02 00:00:40;;;;;;;9.50;4.53;;;;;;;8.78;100.00;102001.44;4969958;28;20054;-65
2024/02/02 00:03:07;;;;;;;7.55;4.75;;;;;;;8.82;100.00;102007.16;4973042;28;20058;-65
2024/02/02 00:05:35;;;;;;;8.70;4.13;;;;;;;8.85;100.00;102001.03;4973229;28;20051;-65
2024/02/02 00:08:04;;;;;;;7.95;4.18;;;;;;;8.86;100.00;102014.56;4974233;28;20089;-64
2024/02/02 00:10:31;;;;;;;8.98;4.88;;;;;;;8.88;100.00;102011.47;4973162;28;20131;-65
2024/02/02 00:12:59;;;;;;;6.70;4.28;;;;;;;8.89;100.00;102019.47;4969662;28;20047;-65
2024/02/02 00:15:26;;;;;;;6.85;4.00;;;;;;;8.90;100.00;102012.81;4973433;28;20046;-65
2024/02/02 00:17:54;;;;;;;9.10;4.60;;;;;;;8.92;100.00;102018.06;4973649;28;20047;-65
2024/02/02 00:20:21;;;;;;;8.70;4.28;;;;;;;8.93;100.00;102020.50;4971371;28;20055;-65
2024/02/02 00:22:49;;;;;;;5.78;3.70;;;;;;;8.96;100.00;102030.94;4970193;28;20058;-65
2024/02/02 00:25:18;;;;;;;5.53;3.88;;;;;;;8.97;100.00;102026.25;4973107;28;20513;-65
2024/02/02 00:27:45;;;;;;;7.70;3.92;;;;;;;8.97;100.00;102021.53;4972045;28;20035;-65
2024/02/02 00:30:13;;;;;;;11.15;4.53;;;;;;;8.99;100.00;102030.34;4974703;28;20054;-65
2024/02/02 00:32:44;;;;;;;12.60;5.03;;;;;;;8.98;100.00;102028.69;4954706;28;20051;-65
2024/02/02 00:35:13;;;;;;;7.70;4.30;;;;;;;8.98;100.00;102034.22;4973839;28;20047;-65
2024/02/02 00:37:41;;;;;;;7.90;4.70;;;;;;;8.98;100.00;102034.22;4962735;28;20050;-65
2024/02/02 00:40:09;;;;;;;7.97;5.05;;;;;;;8.98;100.00;102027.88;4941193;28;20039;-65
2024/02/02 00:42:37;;;;;;;6.75;3.88;;;;;;;8.99;100.00;102024.81;4962345;28;20073;-65
2024/02/02 00:45:04;;;;;;;5.18;3.65;;;;;;;9.01;100.00;102032.78;4971325;28;20042;-65
2024/02/02 00:47:32;;;;;;;7.63;3.95;;;;;;;9.02;100.00;102028.91;4972674;28;20051;-65
2024/02/02 00:49:59;;;;;;;6.78;4.03;;;;;;;9.02;100.00;102023.38;4969572;28;20075;-65
2024/02/02 00:52:27;;;;;;;5.80;4.40;;;;;;;9.03;100.00;102036.88;4970337;28;20053;-65
2024/02/02 00:54:55;;;;;;;5.60;3.85;;;;;;;9.05;100.00;102029.09;4969218;28;20076;-65
2024/02/02 00:57:23;;;;;;;12.52;4.35;;;;;;;9.06;100.00;102044.56;4969836;28;20055;-65
2024/02/02 00:59:50;;;;;;;9.57;4.35;;;;;;;9.08;100.00;102022.97;4957393;28;20055;-65
2024/02/02 01:02:18;;;;;;;5.00;3.53;;;;;;;9.08;100.00;102025.75;4952683;28;20066;-65
2024/02/02 01:04:45;;;;;;;7.78;4.45;;;;;;;9.09;100.00;102019.09;4960324;28;20051;-65
2024/02/02 01:07:15;;;;;;;5.15;4.00;;;;;;;9.07;100.00;102026.88;4970111;28;20544;-65
2024/02/02 01:09:43;;;;;;;10.82;4.15;;;;;;;9.08;100.00;102014.69;4961478;28;20046;-65
2024/02/02 01:12:11;;;;;;;5.32;3.78;;;;;;;9.10;100.00;102025.44;4963570;28;20050;-63
2024/02/02 01:14:39;;;;;;;8.57;5.10;;;;;;;9.08;100.00;102017.44;4968068;28;20505;-62
2024/02/02 01:17:07;;;;;;;5.38;3.83;;;;;;;9.08;100.00;102017.44;4968601;28;20058;-63
2024/02/02 01:19:37;;;;;;;7.57;3.97;;;;;;;9.09;100.00;102010.81;4957677;28;20584;-64
2024/02/02 01:22:05;;;;;;;5.32;4.38;;;;;;;9.10;100.00;102012.47;4955004;28;20062;-63
2024/02/02 01:24:33;;;;;;;6.68;4.25;;;;;;;9.09;100.00;102016.34;4969539;28;20054;-63
2024/02/02 01:27:00;;;;;;;7.90;4.03;;;;;;;9.09;100.00;102010.81;4968666;28;20046;-63
2024/02/02 01:29:29;;;;;;;6.55;3.72;;;;;;;9.08;100.00;102009.16;4966005;28;20061;-64
2024/02/02 01:31:56;;;;;;;5.72;4.05;;;;;;;9.09;100.00;102010.81;4964684;28;20051;-64
2024/02/02 01:34:24;;;;;;;6.43;4.07;;;;;;;9.11;100.00;102005.78;4968897;28;20053;-64
2024/02/02 01:36:52;;;;;;;5.00;3.15;;;;;;;9.11;100.00;102005.78;4968979;28;20039;-63
2024/02/02 01:39:19;;;;;;;6.13;3.90;;;;;;;9.11;100.00;101994.75;4968875;28;20047;-63
2024/02/02 01:41:46;;;;;;;6.90;3.88;;;;;;;9.13;100.00;101988.94;4968293;28;20085;-63
2024/02/02 01:44:14;;;;;;;6.18;4.47;;;;;;;9.11;100.00;102000.25;4968531;28;20042;-63
2024/02/02 01:46:46;;;;;;;6.88;3.95;;;;;;;9.11;100.00;101983.69;4968674;28;20523;-63
2024/02/02 01:49:14;;;;;;;;;;;;;;;9.09;100.00;101985.94;4968867;28;20046;-64
2024/02/02 01:51:41;;;;;;;6.25;3.50;;;;;;;9.08;100.00;101972.44;4967774;28;20395;-63
2024/02/02 01:54:10;;;;;;;4.90;3.45;;;;;;;9.08;100.00;101987.06;4970712;28;20138;-63
2024/02/02 01:56:38;;;;;;;5.53;4.00;;;;;;;9.07;100.00;101973.56;4969853;28;20057;-64
2024/02/02 01:59:07;;;;;;;4.60;3.22;;;;;;;9.06;100.00;101983.78;4969213;28;20047;-64
2024/02/02 02:01:37;;;;;;;6.30;3.40;;;;;;;9.07;100.00;101965.28;4950391;28;20043;-64
2024/02/02 02:04:04;;;;;;;4.13;3.45;;;;;;;9.06;100.00;101958.09;4961582;28;20035;-64
2024/02/02 02:06:32;;;;;;;5.53;3.38;;;;;;;9.06;100.00;101958.09;4972826;28;20046;-64
2024/02/02 02:09:00;;;;;;;7.32;3.45;;;;;;;9.06;100.00;101955.34;4974212;28;20405;-65
2024/02/02 02:11:28;;;;;;;3.60;2.97;;;;;;;9.07;100.00;101955.06;4961952;28;20428;-64
2024/02/02 02:13:55;;;;;;;3.65;2.38;;;;;;;9.07;100.00;101957.81;4968545;28;20740;-64
2024/02/02 02:16:22;;;;;;;3.35;2.53;;;;;;;9.07;100.00;101957.81;4968568;28;20051;-64
2024/02/02 02:18:50;;;;;;;3.30;2.70;;;;;;;9.08;100.00;101959.44;4968739;28;20046;-64
2024/02/02 02:21:29;;;;;;;6.82;3.13;;;;;;;9.10;100.00;101956.38;4969176;28;20051;-63
2024/02/02 02:23:56;;;;;;;3.00;2.17;;;;;;;9.10;100.00;101959.16;4967790;28;21174;-65
2024/02/02 02:26:26;;;;;;;4.65;2.22;;;;;;;9.12;100.00;101963.25;4968316;28;20055;-64
2024/02/02 02:28:53;;;;;;;4.70;2.60;;;;;;;9.14;100.00;101954.63;4968438;28;20043;-64
2024/02/02 02:31:20;;;;;;;6.25;2.33;;;;;;;9.15;100.00;101956.28;4960754;28;20055;-64
2024/02/02 02:33:48;;;;;;;2.70;2.50;;;;;;;9.15;100.00;101959.88;4963521;28;20815;-64
2024/02/02 02:36:15;;;;;;;2.88;2.58;;;;;;;9.18;100.00;101955.69;4967599;28;20127;-64
2024/02/02 02:38:43;;;;;;;2.60;2.40;;;;;;;9.17;100.00;101954.84;4967834;28;20051;-64
2024/02/02 02:41:12;;;;;;;3.70;2.30;;;;;;;9.18;100.00;101950.97;4968780;28;20564;-64
2024/02/02 02:43:40;;;;;;;3.30;2.00;;;;;;;9.21;100.00;101954.25;4968124;28;20043;-65
2024/02/02 02:46:07;;;;;;;2.58;2.38;;;;;;;9.22;100.00;101950.34;4968495;28;20042;-64
2024/02/02 02:48:36;;;;;;;3.55;3.22;;;;;;;9.24;100.00;101950.88;4952299;28;20413;-64
2024/02/02 02:51:04;;;;;;;4.47;2.42;;;;;;;9.25;100.00;101949.72;4961736;28;20693;-64
2024/02/02 02:53:32;;;;;;;3.90;2.13;;;;;;;9.26;100.00;101954.13;4967961;28;20039;-64
2024/02/02 02:55:59;;;;;;;4.15;2.35;;;;;;;9.27;100.00;101947.47;4968652;28;20047;-64
2024/02/02 02:58:27;;;;;;;2.60;1.85;;;;;;;9.27;100.00;101948.28;4979939;28;20047;-64
2024/02/02 03:00:55;;;;;;;3.80;3.05;;;;;;;9.27;100.00;101955.75;5039128;23;20219;-64
2024/02/02 03:03:22;;;;;;;2.83;2.17;;;;;;;9.29;100.00;101950.75;4998417;28;20042;-64
2024/02/02 03:05:50;;;;;;;2.95;2.00;;;;;;;9.27;100.00;101939.16;4987952;28;20058;-63
2024/02/02 03:08:18;;;;;;;2.35;1.77;;;;;;;9.27;100.00;101941.94;5006232;28;20056;-64
2024/02/02 03:10:45;;;;;;;2.25;1.92;;;;;;;9.27;100.00;101941.94;5004909;28;20057;-64
2024/02/02 03:13:13;;;;;;;2.85;2.63;;;;;;;9.27;100.00;101939.16;5006331;28;20050;-64
2024/02/02 03:15:41;;;;;;;2.60;2.15;;;;;;;9.28;100.00;101944.41;5005534;28;20068;-65
2024/02/02 03:18:11;;;;;;;2.50;2.10;;;;;;;9.27;100.00;101930.88;5004816;28;20058;-65
2024/02/02 03:20:38;;;;;;;2.15;1.95;;;;;;;9.27;100.00;101931.72;5004927;28;20053;-64
2024/02/02 03:23:06;;;;;;;2.22;1.98;;;;;;;9.28;100.00;101915.94;5005802;28;20084;-66
2024/02/02 03:25:33;;;;;;;2.65;2.40;;;;;;;9.28;100.00;101904.91;5006133;28;20050;-64
2024/02/02 03:28:02;;;;;;;2.03;1.85;;;;;;;9.27;100.00;101908.78;5006068;28;20125;-64
2024/02/02 03:30:29;;;;;;;3.00;2.15;;;;;;;9.26;100.00;101907.97;5004158;28;20087;-64
2024/02/02 03:32:57;;;;;;;2.72;2.15;;;;;;;9.27;100.00;101903.25;5005148;28;20042;-65
2024/02/02 03:35:25;;;;;;;3.28;2.38;;;;;;;9.25;100.00;101900.81;5001113;28;20054;-64
2024/02/02 03:37:52;;;;;;;2.60;2.10;;;;;;;9.25;100.00;101894.47;5005019;28;20049;-64
2024/02/02 03:40:20;;;;;;;3.15;2.33;;;;;;;9.25;100.00;101900.00;4988250;28;20041;-64
2024/02/02 03:42:47;;;;;;;2.63;2.35;;;;;;;9.25;100.00;101895.28;5005577;28;20050;-64
2024/02/02 03:45:15;;;;;;;2.90;2.60;;;;;;;9.25;100.00;101894.47;5005209;28;20052;-65
2024/02/02 03:47:42;;;;;;;1.98;1.77;;;;;;;9.24;100.00;101885.34;4985508;28;20562;-65
2024/02/02 03:50:09;;;;;;;3.78;2.25;;;;;;;9.25;100.00;101875.94;5006222;28;20053;-65
2024/02/02 03:52:37;;;;;;;2.55;2.10;;;;;;;9.26;100.00;101879.53;5005778;28;20049;-64
2024/02/02 03:55:04;;;;;;;2.70;1.85;;;;;;;9.28;100.00;101874.50;4999024;28;20083;-64
2024/02/02 03:57:32;;;;;;;1.92;1.67;;;;;;;9.28;100.00;101860.69;4988257;28;20058;-64
2024/02/02 03:59:59;;;;;;;1.75;1.63;;;;;;;9.29;100.00;101868.69;5005617;28;20046;-64
2024/02/02 04:02:27;;;;;;;1.98;1.70;;;;;;;9.29;100.00;101860.41;5004892;28;20065;-64
2024/02/02 04:04:54;;;;;;;1.88;1.77;;;;;;;9.30;100.00;101858.44;5005462;28;20042;-64
2024/02/02 04:07:21;;;;;;;2.80;2.50;;;;;;;9.30;100.00;101856.47;4997526;28;20058;-64
2024/02/02 04:09:49;;;;;;;1.90;1.63;;;;;;;9.33;100.00;101857.81;5005822;28;20046;-64
2024/02/02 04:12:17;;;;;;;2.38;1.75;;;;;;;9.33;100.00;101869.69;4985661;28;20616;-64
2024/02/02 04:14:45;;;;;;;1.90;1.55;;;;;;;9.37;100.00;101858.84;5004695;28;20413;-64
2024/02/02 04:17:12;;;;;;;3.03;1.13;;;;;;;9.37;100.00;101858.84;5005216;28;20042;-64
2024/02/02 04:19:40;;;;;;;1.42;1.33;;;;;;;9.37;100.00;101870.69;5005862;28;20045;-64
2024/02/02 04:22:07;;;;;;;2.35;1.38;;;;;;;9.38;100.00;101855.75;5004421;28;20038;-64
2024/02/02 04:24:34;;;;;;;1.67;1.20;;;;;;;9.39;100.00;101857.41;5006497;28;20061;-65
2024/02/02 04:27:02;;;;;;;1.67;1.20;;;;;;;9.39;100.00;101842.75;5006135;28;20053;-64
2024/02/02 04:29:29;;;;;;;1.55;1.00;;;;;;;9.38;100.00;101846.63;5009378;28;20053;-65
2024/02/02 04:31:57;;;;;;;1.10;0.95;;;;;;;9.36;100.00;101844.19;5007362;28;20068;-64
2024/02/02 04:34:24;;;;;;;2.47;1.15;;;;;;;9.34;100.00;101843.69;5009136;28;20042;-65
2024/02/02 04:36:52;;;;;;;0.85;0.73;;;;;;;9.34;100.00;101831.81;5008898;28;20057;-64
2024/02/02 04:39:19;;;;;;;1.15;1.05;;;;;;;9.33;100.00;101842.06;5008825;28;20065;-64
2024/02/02 04:41:46;;;;;;;0.98;0.90;;;;;;;9.32;100.00;101837.63;5008577;28;20053;-64
2024/02/02 04:44:15;;;;;;;1.20;1.00;;;;;;;9.32;100.00;101828.56;5008895;28;20049;-65
2024/02/02 04:46:42;;;;;;;0.80;0.52;;;;;;;9.31;100.00;101829.69;5008202;28;20050;-65
2024/02/02 04:49:10;;;;;;;0.90;0.90;;;;;;;9.31;100.00;101829.69;5003635;28;20046;-64
2024/02/02 04:51:38;;;;;;;4.95;1.67;;;;;;;9.32;100.00;101820.28;5007976;28;20060;-64
2024/02/02 04:54:05;;;;;;;0.60;0.55;;;;;;;9.32;100.00;101834.88;5008937;28;20050;-64
2024/02/02 04:56:33;;;;;;;0.50;0.50;;;;;;;9.35;100.00;101838.97;5007947;28;20056;-65
2024/02/02 04:59:00;;;;;;;0.82;0.60;;;;;;;9.37;100.00;101832.00;5001759;28;20053;-64
2024/02/02 05:01:28;;;;;;;2.42;0.63;;;;;;;9.40;100.00;101836.13;5003582;28;20055;-65
2024/02/02 05:03:56;;;;;;;0.43;0.15;;;;;;;9.44;100.00;101837.13;5007066;28;20052;-64
2024/02/02 05:06:23;;;;;;;2.75;1.05;;;;;;;9.46;100.00;101834.84;5008256;28;20049;-64
2024/02/02 05:08:52;;;;;;;0.50;0.50;;;;;;;9.50;100.00;101827.59;5008385;28;20046;-64
2024/02/02 05:11:20;;;;;;;0.50;0.50;;;;;;;9.55;100.00;101835.75;5008663;28;20581;-64
2024/02/02 05:13:48;;;;;;;1.08;0.30;;;;;;;9.56;100.00;101826.31;5008484;28;20050;-65
2024/02/02 05:16:15;;;;;;;0.52;0.40;;;;;;;9.58;100.00;101827.63;5007892;28;20511;-65
2024/02/02 05:18:42;;;;;;;0.80;0.32;;;;;;;9.62;100.00;101833.38;5007873;28;20560;-64
2024/02/02 05:21:10;;;;;;;2.17;0.50;;;;;;;9.62;100.00;101825.06;5008620;28;20399;-64
2024/02/02 05:23:38;;;;;;;0.50;0.50;;;;;;;9.63;100.00;101812.91;5008153;28;20046;-65
2024/02/02 05:26:16;;;;;;;1.85;0.52;;;;;;;9.63;100.00;101813.72;5007812;28;20064;-65
2024/02/02 05:28:44;;;;;;;0.45;0.25;;;;;;;9.63;100.00;101813.72;4995748;28;20050;-64
2024/02/02 05:31:11;;;;;;;4.55;1.83;;;;;;;9.63;100.00;101815.66;5006061;28;20061;-65
2024/02/02 05:33:39;;;;;;;0.43;0.30;;;;;;;9.63;100.00;101812.91;5006968;28;20050;-64
2024/02/02 05:36:08;;;;;;;0.82;0.40;;;;;;;9.62;100.00;101811.25;5008032;28;20038;-65
2024/02/02 05:38:37;;;;;;;0.32;0.20;;;;;;;9.61;100.00;101818.72;5007287;28;20399;-65
2024/02/02 05:41:05;;;;;;;1.35;1.20;;;;;;;9.63;100.00;101816.50;5007916;28;20061;-64
2024/02/02 05:43:32;;;;;;;0.70;0.25;;;;;;;9.61;100.00;101804.91;5007096;28;20038;-64
2024/02/02 05:46:00;;;;;;;0.55;0.28;;;;;;;9.61;100.00;101809.63;5007614;28;20046;-64
2024/02/02 05:48:27;;;;;;;1.35;0.50;;;;;;;9.61;100.00;101801.34;5007260;28;20057;-65
2024/02/02 05:50:55;;;;;;;0.77;0.40;;;;;;;9.59;100.00;101806.34;5006995;28;20046;-64
2024/02/02 05:53:22;;;;;;;0.30;0.30;;;;;;;9.60;100.00;101796.94;5007775;28;20057;-64
2024/02/02 05:55:50;;;;;;;1.58;0.20;;;;;;;9.60;100.00;101796.94;5007757;28;20049;-64
2024/02/02 05:58:17;;;;;;;1.67;0.40;;;;;;;9.60;100.00;101797.75;5009223;28;20061;-64
2024/02/02 06:00:45;;;;;;;0.20;0.20;;;;;;;9.61;100.00;101806.88;5009001;28;20046;-64
2024/02/02 06:03:12;;;;;;;0.20;0.20;;;;;;;9.62;100.00;101800.19;5009791;28;20052;-64
2024/02/02 06:05:40;;;;;;;1.30;0.63;;;;;;;9.63;100.00;101797.13;5007630;28;20053;-64
2024/02/02 06:08:08;;;;;;;2.17;0.20;;;;;;;9.64;100.00;101806.22;5003487;28;20438;-64
2024/02/02 06:10:35;;;;;;;0.73;0.15;;;;;;;9.63;100.00;101796.31;5005768;28;20072;-64
2024/02/02 06:13:04;;;;;;;1.73;0.70;;;;;;;9.62;100.00;101794.66;4985028;28;20042;-64
2024/02/02 06:15:31;;;;;;;0.25;0.20;;;;;;;9.62;100.00;101791.91;5008115;28;20049;-64
2024/02/02 06:17:58;;;;;;;1.10;0.20;;;;;;;9.63;100.00;101807.38;5009292;28;20508;-64
2024/02/02 06:20:26;;;;;;;0.28;0.20;;;;;;;9.64;100.00;101800.69;5009079;28;20057;-64
2024/02/02 06:22:53;;;;;;;0.47;0.40;;;;;;;9.64;100.00;101801.50;5008442;28;20056;-64
2024/02/02 06:25:21;;;;;;;2.30;0.63;;;;;;;9.66;100.00;101801.22;5008151;28;20050;-64
2024/02/02 06:27:48;;;;;;;0.32;0.30;;;;;;;9.67;100.00;101798.13;4999537;28;20084;-64
2024/02/02 06:30:16;;;;;;;0.55;0.25;;;;;;;9.67;100.00;101795.38;5007322;28;20043;-65
2024/02/02 06:32:48;;;;;;;0.20;0.15;;;;;;;9.69;100.00;101786.75;5007121;28;20053;-64
2024/02/02 06:35:16;;;;;;;;;;;;;;;9.71;100.00;101795.56;5006961;28;20053;-65
2024/02/02 06:37:43;;;;;;;0.35;0.25;;;;;;;9.71;100.00;101787.25;5007109;28;20283;-64
2024/02/02 06:40:11;;;;;;;1.98;0.50;;;;;;;9.71;100.00;101779.78;5007033;28;20058;-64
2024/02/02 06:42:39;;;;;;;1.55;0.20;;;;;;;9.73;100.00;101785.00;5007192;28;20061;-64
2024/02/02 06:45:07;;;;;;;0.57;0.20;;;;;;;9.75;100.00;101778.03;5005764;28;20041;-64
2024/02/02 06:47:37;;;;;;;0.32;0.20;;;;;;;9.76;100.00;101778.84;5005259;28;20128;-64
2024/02/02 06:50:05;;;;;;;2.47;0.30;;;;;;;9.75;100.00;101778.03;5006722;28;20049;-65
2024/02/02 06:52:32;;;;;;;1.25;0.28;;;;;;;9.75;100.00;101778.03;5004807;28;20496;-65
2024/02/02 06:54:59;;;;;;;0.57;0.30;;;;;;;9.76;100.00;101784.38;5006388;28;20072;-64
2024/02/02 06:57:31;;;;;;;0.22;0.20;;;;;;;9.78;100.00;101776.56;5006473;28;20056;-65
2024/02/02 07:00:00;;;;;;;0.30;0.30;;;;;;;9.77;100.00;101763.88;4988777;28;20053;-64
2024/02/02 07:02:30;;;;;;;0.22;0.20;;;;;;;9.75;100.00;101777.19;5005162;28;20061;-64
2024/02/02 07:04:58;;;;;;;1.40;0.25;;;;;;;9.75;100.00;101789.09;5006220;28;20045;-64
2024/02/02 07:07:26;;;;;;;3.80;1.88;;;;;;;9.74;100.00;101786.63;5004993;28;20054;-64
2024/02/02 07:09:57;;;;;;;0.98;0.20;;;;;;;9.74;100.00;101789.41;5006274;28;20054;-64
2024/02/02 07:12:34;;;;;;;1.33;0.55;;;;;;;9.75;100.00;101800.13;5000743;28;20062;-64
2024/02/02 07:15:04;;;;;;;0.40;0.20;;;;;;;9.76;100.00;101787.97;5006642;28;20046;-64
2024/02/02 07:17:37;;;;;;;0.30;0.30;;;;;;;9.78;100.00;101801.47;5005851;28;20053;-64
2024/02/02 07:20:23;;;;;;;1.23;0.35;;;;;;;9.81;100.00;101803.59;5006657;28;20049;-64
2024/02/02 07:22:52;;;;;;;0.85;0.30;;;;;;;9.82;100.00;101796.94;5006333;28;20049;-65
2024/02/02 07:25:21;;;;;;;0.75;0.50;;;;;;;9.81;100.00;101800.84;5006264;28;20050;-64
2024/02/02 07:27:52;;;;;;;0.30;0.30;;;;;;;9.80;100.00;101797.25;4987924;28;20053;-64
2024/02/02 07:30:55;;;;;;;0.40;0.23;;;;;;;9.80;100.00;101804.72;5006918;28;20053;-64
2024/02/02 07:33:41;;;;;;;1.85;0.40;;;;;;;9.78;100.00;101807.81;4989563;28;20076;-64
2024/02/02 07:36:16;;;;;;;1.95;0.30;;;;;;;9.78;100.00;101812.53;4999135;28;20040;-65
2024/02/02 07:38:46;;;;;;;0.43;0.38;;;;;;;9.77;100.00;101808.09;5006527;28;20057;-65
2024/02/02 07:41:22;;;;;;;0.20;0.20;;;;;;;9.76;100.00;101810.09;5005406;28;20050;-65
2024/02/02 07:43:50;;;;;;;0.20;0.20;;;;;;;9.78;100.00;101810.59;5005363;28;20045;-65
2024/02/02 07:46:18;;;;;;;0.63;0.28;;;;;;;9.79;100.00;101808.63;5005992;28;20447;-65
2024/02/02 07:48:47;;;;;;;0.63;0.30;;;;;;;9.80;100.00;101801.97;5006685;28;20061;-63
2024/02/02 07:51:17;;;;;;;1.55;0.32;;;;;;;9.83;100.00;101809.63;5005545;28;20056;-63
2024/02/02 07:53:46;;;;;;;2.95;0.40;;;;;;;9.84;100.00;101802.97;5005249;28;20061;-63
2024/02/02 07:56:15;;;;;;;0.30;0.30;;;;;;;9.86;100.00;101811.78;5006407;28;20046;-63
2024/02/02 07:58:43;;;;;;;0.38;0.38;;;;;;;9.89;100.00;101810.31;5009588;28;20054;-64
2024/02/02 08:01:10;;;;;;;0.30;0.30;;;;;;;9.90;100.00;101810.00;5009605;28;20046;-64
2024/02/02 08:03:38;;;;;;;1.42;0.40;;;;;;;9.90;100.00;101806.44;5010205;28;20046;-64
2024/02/02 08:06:06;;;;;;;2.65;0.50;;;;;;;9.91;100.00;101814.41;5010166;28;20049;-64
2024/02/02 08:08:35;;;;;;;0.32;0.25;;;;;;;9.90;100.00;101812.75;5010024;28;20041;-64
2024/02/02 08:11:03;;;;;;;0.77;0.38;;;;;;;9.92;100.00;101793.09;5009944;28;20061;-65
2024/02/02 08:13:31;;;;;;;0.60;0.50;;;;;;;9.92;100.00;101818.81;5004331;28;20531;-65
2024/02/02 08:15:59;;;;;;;0.85;0.57;;;;;;;9.94;100.00;101830.38;5008879;28;20053;-63
2024/02/02 08:18:27;;;;;;;0.73;0.43;;;;;;;9.96;100.00;101828.09;5008873;28;20064;-63
2024/02/02 08:20:56;;;;;;;0.60;0.50;;;;;;;9.97;100.00;101824.22;5008661;28;20050;-66
2024/02/02 08:23:25;;;;;;;1.58;0.40;;;;;;;9.98;100.00;101820.31;5013139;28;20049;-63
2024/02/02 08:25:53;;;;;;;1.63;0.20;;;;;;;9.99;100.00;101821.94;5011091;28;20543;-61
2024/02/02 08:28:20;;;;;;;5.60;0.73;;;;;;;9.99;100.00;101810.88;5007723;28;20042;-64
2024/02/02 08:30:47;;;;;;;0.40;0.40;;;;;;;10.00;100.00;101822.78;5006524;28;20049;-64
2024/02/02 08:33:15;;;;;;;2.38;0.45;;;;;;;9.99;100.00;101815.59;5008738;28;20061;-63
2024/02/02 08:35:43;;;;;;;1.98;0.77;;;;;;;9.99;100.00;101819.19;5009764;28;20061;-64
2024/02/02 08:38:12;;;;;;;0.35;0.35;;;;;;;9.99;100.00;101816.41;5010471;28;20790;-64
2024/02/02 08:40:44;;;;;;;1.13;0.70;;;;;;;9.99;100.00;101833.00;5002269;28;20642;-64
2024/02/02 08:43:22;;;;;;;0.77;0.30;;;;;;;9.99;100.00;101824.72;5009817;28;20523;-64
2024/02/02 08:46:09;;;;;;;0.98;0.47;;;;;;;9.99;100.00;101821.94;5009090;28;20042;-65
2024/02/02 08:48:45;;;;;;;0.55;0.22;;;;;;;10.01;100.00;101844.56;5001198;28;20053;-65
2024/02/02 08:51:22;;;;;;;1.95;0.30;;;;;;;10.03;100.00;101842.34;5005456;28;20045;-64
2024/02/02 08:53:58;;;;;;;2.95;0.32;;;;;;;10.06;100.00;101838.13;5010159;28;20042;-63
2024/02/02 08:56:26;;;;;;;0.30;0.30;;;;;;;10.08;100.00;101842.22;5009278;28;20580;-64
2024/02/02 08:58:54;;;;;;;0.60;0.20;;;;;;;10.12;100.00;101843.22;5009437;28;20049;-63
2024/02/02 09:01:30;;;;;;;1.75;0.40;;;;;;;10.14;100.00;101851.22;5009145;28;20054;-63
2024/02/02 09:03:58;;;;;;;5.63;0.60;;;;;;;10.15;100.00;101845.38;5005317;28;20054;-64
2024/02/02 09:06:43;;;;;;;0.52;0.30;;;;;;;10.19;100.00;101848.34;4991460;28;20061;-63
2024/02/02 09:09:14;;;;;;;1.63;0.40;;;;;;;10.19;100.00;101834.50;5004569;28;20049;-63
2024/02/02 09:11:48;;;;;;;1.77;0.50;;;;;;;10.20;100.00;101834.16;5008587;28;20050;-63
2024/02/02 09:14:17;;;;;;;1.67;0.30;;;;;;;10.22;100.00;101831.88;5008663;28;20137;-63
2024/02/02 09:16:50;;;;;;;1.35;0.40;;;;;;;10.25;100.00;101834.03;5008845;28;20057;-64
2024/02/02 09:19:26;;;;;;;0.82;0.43;;;;;;;10.27;100.00;101850.34;5008159;28;20054;-63
2024/02/02 09:22:00;;;;;;;3.05;0.90;;;;;;;10.29;100.00;101848.06;5008708;28;20046;-63
2024/02/02 09:25:06;;;;;;;0.20;0.20;;;;;;;10.31;100.00;101835.53;5008735;28;20042;-63
2024/02/02 09:27:38;;;;;;;0.65;0.38;;;;;;;10.33;100.00;101838.81;4948427;28;20059;-64
2024/02/02 09:30:21;;;;;;;0.52;0.20;;;;;;;10.33;100.00;101844.34;5002792;28;20042;-63
2024/02/02 09:32:49;;;;;;;0.25;0.17;;;;;;;10.35;100.00;101841.28;5000319;28;20535;-62
2024/02/02 09:35:34;;;;;;;1.35;0.20;;;;;;;10.37;100.00;101850.88;5008537;28;20038;-64
2024/02/02 09:38:02;;;;;;;2.35;0.82;;;;;;;10.37;100.00;101844.53;5008325;28;20400;-63
2024/02/02 09:40:56;;;;;;;0.45;0.22;;;;;;;10.37;100.00;101848.13;5007384;28;20049;-64
2024/02/02 09:44:01;;;;;;;1.60;0.20;;;;;;;10.37;100.00;101853.66;4987199;28;20057;-65
2024/02/02 09:46:51;;;;;;;0.82;0.30;;;;;;;10.36;100.00;101854.78;5005659;28;20053;-63
2024/02/02 09:49:47;;;;;;;0.63;0.40;;;;;;;10.35;100.00;101847.59;5009008;28;20573;-63
2024/02/02 09:52:36;;;;;;;1.33;0.22;;;;;;;10.36;100.00;101854.78;5007901;28;20048;-63
2024/02/02 09:55:12;;;;;;;0.70;0.20;;;;;;;10.38;100.00;101852.50;5008071;28;20053;-62
2024/02/02 09:57:59;;;;;;;1.95;0.40;;;;;;;10.42;100.00;101851.88;5003211;28;20053;-63
2024/02/02 10:00:48;;;;;;;0.40;0.32;;;;;;;10.44;100.00;101855.13;5008762;28;20053;-63
2024/02/02 10:03:40;;;;;;;0.95;0.30;;;;;;;10.46;100.00;101855.66;5005229;28;20499;-65
2024/02/02 10:06:26;;;;;;;;;;;;;;;10.47;100.00;101854.50;5005260;28;20050;-63
2024/02/02 10:09:14;;;;;;;0.38;0.38;;;;;;;10.49;100.00;101852.22;5008149;28;19944;-63
2024/02/02 10:12:12;;;;;;;0.32;0.30;;;;;;;10.52;100.00;101841.34;4998570;28;20045;-63
2024/02/02 10:15:10;;;;;;;0.10;0.10;;;;;;;10.53;100.00;101837.47;5000927;28;20054;-63
2024/02/02 10:17:57;;;;;;;0.73;0.20;;;;;;;10.54;100.00;101846.59;4994197;28;20054;-63
2024/02/02 10:20:37;;;;;;;1.67;0.30;;;;;;;10.57;100.00;101854.22;5007264;28;20046;-63
2024/02/02 10:23:34;;;;;;;1.98;0.28;;;;;;;10.57;100.00;101857.81;5001746;28;20053;-63
2024/02/02 10:26:35;;;;;;;0.20;0.10;;;;;;;10.59;100.00;101863.06;4999851;28;20519;-63
2024/02/02 10:29:20;;;;;;;0.80;0.40;;;;;;;10.60;100.00;101864.66;5008203;28;20136;-63
2024/02/02 10:31:48;;;;;;;0.20;0.13;;;;;;;10.57;100.00;101865.31;5008019;28;20459;-63
2024/02/02 10:34:24;;;;;;;0.10;0.10;;;;;;;10.57;100.00;101859.75;5007227;28;20088;-63
2024/02/02 10:37:22;;;;;;;0.40;0.20;;;;;;;10.58;100.00;101862.25;5007448;28;20046;-64
2024/02/02 10:40:08;;;;;;;0.30;0.10;;;;;;;10.60;100.00;101862.72;5000435;28;20042;-64
2024/02/02 10:42:56;;;;;;;0.40;0.15;;;;;;;10.63;100.00;101864.88;5005729;28;20053;-63
2024/02/02 10:45:32;;;;;;;1.45;0.15;;;;;;;10.66;100.00;101860.63;5007598;28;20050;-62
2024/02/02 10:48:14;;;;;;;0.10;0.10;;;;;;;10.67;100.00;101853.97;4999693;28;20077;-63
2024/02/02 10:50:52;;;;;;;0.63;0.10;;;;;;;10.69;100.00;101848.94;4998201;28;20054;-62
2024/02/02 10:53:57;;;;;;;0.28;0.20;;;;;;;10.72;100.00;101840.78;5001430;28;20046;-63
2024/02/02 10:57:15;;;;;;;1.00;0.95;;;;;;;10.76;100.00;101841.78;5007054;28;20427;-63
2024/02/02 10:59:57;;;;;;;0.32;0.28;;;;;;;10.80;100.00;101839.19;4990165;28;20057;-63
2024/02/02 11:02:25;;;;;;;;;;;;;;;10.82;100.00;101823.91;5007786;28;20053;-63
2024/02/02 11:05:13;;;;;;;0.20;0.13;;;;;;;10.85;100.00;101839.88;5007487;28;19925;-64
2024/02/02 11:07:46;;;;;;;0.52;0.17;;;;;;;10.90;100.00;101836.13;5005837;28;20049;-64
2024/02/02 11:10:19;;;;;;;0.30;0.10;;;;;;;10.94;100.00;101828.81;5005826;28;20050;-63
2024/02/02 11:12:53;;;;;;;0.20;0.20;;;;;;;10.98;100.00;101827.84;5007038;28;20042;-63
2024/02/02 11:15:45;;;;;;;1.60;0.50;;;;;;;11.00;100.00;101819.22;5007640;28;20050;-63
2024/02/02 11:18:19;;;;;;;0.52;0.30;;;;;;;11.05;100.00;101819.06;5000884;28;20607;-63
2024/02/02 11:20:47;;;;;;;0.75;0.13;;;;;;;11.09;100.00;101825.59;5006705;28;20069;-62
2024/02/02 11:23:26;;;;;;;1.35;0.32;;;;;;;11.14;100.00;101821.84;5007767;28;20042;-63
2024/02/02 11:26:02;;;;;;;0.10;0.10;;;;;;;11.16;100.00;101825.94;4995020;28;20052;-63
2024/02/02 11:28:48;;;;;;;0.30;0.20;;;;;;;11.20;100.00;101828.88;5007296;28;20042;-63
2024/02/02 11:31:38;;;;;;;0.20;0.10;;;;;;;11.22;100.00;101815.53;5007363;28;20046;-63
2024/02/02 11:34:24;;;;;;;0.10;0.10;;;;;;;11.23;100.00;101823.50;5005252;28;20052;-62
2024/02/02 11:36:57;;;;;;;0.15;0.15;;;;;;;11.26;100.00;101810.94;4988844;28;20431;-64
2024/02/02 11:39:31;;;;;;;0.10;0.10;;;;;;;11.30;100.00;101823.03;5007239;28;20057;-64
2024/02/02 11:42:01;;;;;;;0.80;0.17;;;;;;;11.33;100.00;101827.94;5007136;28;20050;-63
2024/02/02 11:44:30;;;;;;;1.45;0.20;;;;;;;11.35;100.00;101825.66;5007972;28;20472;-64